Other Surface Observations
Issued by NWS Los Angeles, CA

Current Version | Previous Version | Text Only | Print | Product List | Glossary On
Versions: 1 2 3 4 5 6 7 8 9 10 11
000
SXUS56 KLOX 112157
OSOLOX

OFFSHORE OIL PLATFORM IRENE WEATHER
NATIONAL WEATHER SERVICE OXNARD CA
257 PM PDT SAT OCT 11 2014

OBSERVATION FROM DRILLING RIG "IRENE"
LOCATION 34 DEG 37 MIN N...120 DEG 44 MIN W...30 MILES SW
OF SANTA MARIA...ANEMOMETER LOCATED 305 FEET ABOVE SEA LEVEL.

SPECI 112150Z 36016KT 10SM OVC007 18/16 A2997 RMKS SEAS 2 TO 4 FEET

$$

















































































































































































































































USA.gov is the U.S. government's official web portal to all federal, state and local government web resources and services.